createdAt,value
2017-05-25T00:00:34.208Z,14.81
2017-05-25T00:01:35.637Z,14.75
2017-05-25T00:02:37.063Z,14.71
2017-05-25T00:03:38.508Z,14.72
2017-05-25T00:04:39.924Z,14.80
2017-05-25T00:05:41.354Z,14.67
2017-05-25T00:06:42.777Z,14.78
2017-05-25T00:07:44.207Z,14.74
2017-05-25T00:08:45.655Z,14.94
2017-05-25T00:09:47.075Z,14.81
2017-05-25T00:10:48.508Z,14.67
2017-05-25T00:11:49.936Z,14.72
2017-05-25T00:12:51.359Z,14.81
2017-05-25T00:13:52.788Z,14.74
2017-05-25T00:14:54.205Z,14.72
2017-05-25T00:15:55.645Z,14.72
2017-05-25T00:16:57.842Z,14.57
2017-05-25T00:17:59.287Z,14.50
2017-05-25T00:19:00.701Z,14.52
2017-05-25T00:20:02.138Z,14.52
2017-05-25T00:21:03.566Z,14.60
2017-05-25T00:22:04.993Z,14.34
2017-05-25T00:23:06.420Z,14.19
2017-05-25T00:24:07.852Z,14.32
2017-05-25T00:25:09.282Z,14.25
2017-05-25T00:26:10.710Z,14.27
2017-05-25T00:27:12.138Z,14.31
2017-05-25T00:28:13.561Z,14.28
2017-05-25T00:29:14.992Z,14.32
2017-05-25T00:30:16.421Z,14.28
2017-05-25T00:31:17.857Z,14.24
2017-05-25T00:32:20.014Z,14.02
2017-05-25T00:33:21.450Z,13.96
2017-05-25T00:34:22.867Z,14.06
2017-05-25T00:35:24.295Z,13.99
2017-05-25T00:36:25.721Z,13.96
2017-05-25T00:37:27.146Z,14.01
2017-05-25T00:38:28.581Z,13.95
2017-05-25T00:39:30.016Z,13.99
2017-05-25T00:40:31.438Z,13.94
2017-05-25T00:41:32.859Z,13.95
2017-05-25T00:42:34.283Z,13.87
2017-05-25T00:43:35.717Z,13.92
2017-05-25T00:44:37.150Z,13.98
2017-05-25T00:45:38.577Z,13.88
2017-05-25T00:46:40.007Z,13.76
2017-05-25T00:47:41.431Z,13.96
2017-05-25T00:48:42.865Z,13.92
2017-05-25T00:49:44.294Z,14.01
2017-05-25T00:50:45.732Z,13.94
2017-05-25T00:51:47.163Z,13.98
2017-05-25T00:52:48.609Z,13.95
2017-05-25T00:53:50.033Z,13.81
2017-05-25T00:54:51.462Z,13.74
2017-05-25T00:55:52.890Z,13.40
2017-05-25T00:56:54.310Z,13.47
2017-05-25T00:57:55.735Z,13.61
2017-05-25T00:58:57.158Z,13.40
2017-05-25T00:59:58.587Z,13.44
2017-05-25T01:01:00.021Z,13.52
2017-05-25T01:02:01.446Z,13.44
2017-05-25T01:03:02.874Z,13.30
2017-05-25T01:04:04.302Z,13.49
2017-05-25T01:05:05.721Z,13.46
2017-05-25T01:06:07.153Z,13.59
2017-05-25T01:07:08.580Z,13.59
2017-05-25T01:08:10.029Z,13.61
2017-05-25T01:09:11.456Z,13.58
2017-05-25T01:10:12.880Z,13.71
2017-05-25T01:11:14.311Z,13.69
2017-05-25T01:12:15.735Z,13.67
2017-05-25T01:13:17.160Z,13.58
2017-05-25T01:14:18.592Z,13.74
2017-05-25T01:15:20.020Z,13.76
2017-05-25T01:16:21.445Z,13.79
2017-05-25T01:17:22.872Z,13.69
2017-05-25T01:18:24.303Z,13.54
2017-05-25T01:19:25.733Z,13.47
2017-05-25T01:20:27.163Z,13.69
2017-05-25T01:21:28.585Z,13.56
2017-05-25T01:22:30.007Z,13.61
2017-05-25T01:23:31.443Z,13.59
2017-05-25T01:24:32.869Z,13.52
2017-05-25T01:25:34.294Z,13.46
2017-05-25T01:26:35.722Z,13.59
2017-05-25T01:27:37.152Z,13.62
2017-05-25T01:28:38.587Z,13.71
2017-05-25T01:29:40.007Z,13.69
2017-05-25T01:30:41.431Z,13.69
2017-05-25T01:31:42.859Z,13.55
2017-05-25T01:32:44.296Z,13.62
2017-05-25T01:33:45.764Z,13.49
2017-05-25T01:34:47.191Z,13.61
2017-05-25T01:35:48.617Z,13.44
2017-05-25T01:36:50.098Z,13.44
2017-05-25T01:37:51.520Z,13.44
2017-05-25T01:38:52.950Z,13.24
2017-05-25T01:39:54.472Z,13.24
2017-05-25T01:40:55.898Z,13.21
2017-05-25T01:41:57.325Z,12.82
2017-05-25T01:42:58.753Z,12.67
2017-05-25T01:44:00.184Z,12.63
2017-05-25T01:45:01.603Z,12.69
2017-05-25T01:46:03.040Z,12.81
2017-05-25T01:47:04.461Z,12.78
2017-05-25T01:48:05.995Z,12.67
2017-05-25T01:49:07.425Z,12.41
2017-05-25T01:50:08.845Z,12.16
2017-05-25T01:51:10.349Z,12.05
2017-05-25T01:52:11.770Z,12.16
2017-05-25T01:53:13.199Z,12.05
2017-05-25T01:54:14.626Z,12.12
2017-05-25T01:55:16.120Z,12.21
2017-05-25T01:56:17.554Z,12.31
2017-05-25T01:57:18.977Z,12.23
2017-05-25T01:58:20.417Z,12.34
2017-05-25T01:59:21.911Z,12.37
2017-05-25T02:00:23.339Z,12.56
2017-05-25T02:01:24.765Z,12.48
2017-05-25T02:02:26.215Z,12.56
2017-05-25T02:03:27.640Z,12.51
2017-05-25T02:04:29.069Z,12.49
2017-05-25T02:05:30.491Z,12.46
2017-05-25T02:06:32.004Z,12.45
2017-05-25T02:07:33.435Z,12.51
2017-05-25T02:08:34.870Z,12.57
2017-05-25T02:09:36.298Z,12.54
2017-05-25T02:10:37.727Z,12.52
2017-05-25T02:11:39.148Z,12.66
2017-05-25T02:12:40.684Z,12.64
2017-05-25T02:13:42.134Z,12.75
2017-05-25T02:14:43.562Z,12.77
2017-05-25T02:15:44.988Z,12.78
2017-05-25T02:16:46.412Z,12.75
2017-05-25T02:17:47.839Z,12.79
2017-05-25T02:18:49.266Z,12.71
2017-05-25T02:19:50.694Z,12.74
2017-05-25T02:20:52.152Z,12.64
2017-05-25T02:21:53.581Z,12.78
2017-05-25T02:22:55.015Z,12.69
2017-05-25T02:23:56.443Z,12.63
2017-05-25T02:24:57.881Z,12.54
2017-05-25T02:25:59.309Z,12.54
2017-05-25T02:27:00.736Z,12.57
2017-05-25T02:28:02.168Z,12.45
2017-05-25T02:29:03.595Z,12.48
2017-05-25T02:30:05.023Z,12.27
2017-05-25T02:31:06.456Z,12.08
2017-05-25T02:32:07.879Z,11.99
2017-05-25T02:33:09.316Z,11.89
2017-05-25T02:34:10.740Z,11.99
2017-05-25T02:35:12.179Z,11.93
2017-05-25T02:36:13.605Z,11.86
2017-05-25T02:37:15.028Z,11.99
2017-05-25T02:38:16.450Z,12.05
2017-05-25T02:39:17.869Z,12.11
2017-05-25T02:40:19.305Z,12.19
2017-05-25T02:41:20.731Z,12.21
2017-05-25T02:42:22.158Z,12.26
2017-05-25T02:43:23.582Z,12.42
2017-05-25T02:44:25.006Z,12.45
2017-05-25T02:45:26.431Z,12.49
2017-05-25T02:46:27.869Z,12.45
2017-05-25T02:47:29.317Z,12.51
2017-05-25T02:48:30.741Z,12.59
2017-05-25T02:49:32.163Z,12.45
2017-05-25T02:50:33.594Z,12.66
2017-05-25T02:51:35.020Z,12.70
2017-05-25T02:52:36.448Z,12.77
2017-05-25T02:53:37.883Z,12.89
2017-05-25T02:54:39.311Z,12.82
2017-05-25T02:55:40.746Z,12.87
2017-05-25T02:56:42.169Z,12.84
2017-05-25T02:57:43.604Z,12.84
2017-05-25T02:58:45.037Z,12.84
2017-05-25T02:59:46.462Z,12.95
2017-05-25T03:00:47.895Z,12.75
2017-05-25T03:01:49.325Z,12.85
2017-05-25T03:02:50.748Z,12.89
2017-05-25T03:03:52.170Z,12.97
2017-05-25T03:04:53.593Z,13.04
2017-05-25T03:05:55.027Z,13.06
2017-05-25T03:06:56.453Z,13.15
2017-05-25T03:07:57.884Z,13.12
2017-05-25T03:08:59.310Z,13.14
2017-05-25T03:10:00.734Z,13.15
2017-05-25T03:11:02.164Z,13.20
2017-05-25T03:12:03.585Z,13.24
2017-05-25T03:13:05.008Z,13.27
2017-05-25T03:14:06.435Z,13.41
2017-05-25T03:15:07.860Z,13.38
2017-05-25T03:16:09.286Z,13.29
2017-05-25T03:17:10.717Z,13.36
2017-05-25T03:18:12.144Z,13.44
2017-05-25T03:19:13.576Z,13.41
2017-05-25T03:20:15.001Z,13.44
2017-05-25T03:21:16.431Z,13.40
2017-05-25T03:22:17.874Z,13.47
2017-05-25T03:23:19.308Z,13.41
2017-05-25T03:24:20.744Z,13.36
2017-05-25T03:25:22.171Z,13.41
2017-05-25T03:26:23.603Z,13.44
2017-05-25T03:27:25.038Z,13.38
2017-05-25T03:28:26.481Z,13.30
2017-05-25T03:29:27.908Z,13.25
2017-05-25T03:30:29.333Z,13.37
2017-05-25T03:31:30.761Z,13.33
2017-05-25T03:32:32.287Z,13.32
2017-05-25T03:33:33.767Z,13.30
2017-05-25T03:34:35.189Z,13.51
2017-05-25T03:35:36.619Z,13.51
2017-05-25T03:36:38.061Z,13.40
2017-05-25T03:37:39.487Z,13.49
2017-05-25T03:38:40.913Z,13.49
2017-05-25T03:39:42.380Z,13.44
2017-05-25T03:40:43.810Z,13.54
2017-05-25T03:41:45.237Z,13.51
2017-05-25T03:42:47.278Z,13.44
2017-05-25T03:43:48.713Z,13.46
2017-05-25T03:44:50.149Z,13.36
2017-05-25T03:45:51.580Z,13.49
2017-05-25T03:46:53.027Z,13.46
2017-05-25T03:47:54.457Z,13.46
2017-05-25T03:48:55.877Z,13.44
2017-05-25T03:49:57.309Z,13.41
2017-05-25T03:50:58.736Z,13.38
2017-05-25T03:52:00.170Z,13.40
2017-05-25T03:53:01.598Z,13.44
2017-05-25T03:54:03.025Z,13.51
2017-05-25T03:55:04.451Z,13.52
2017-05-25T03:56:05.882Z,13.46
2017-05-25T03:57:07.321Z,13.51
2017-05-25T03:58:08.755Z,13.44
2017-05-25T03:59:10.182Z,13.40
2017-05-25T04:00:11.615Z,13.30
2017-05-25T04:01:13.053Z,13.33
2017-05-25T04:02:14.483Z,13.33
2017-05-25T04:03:15.917Z,13.25
2017-05-25T04:04:17.355Z,13.41
2017-05-25T04:05:18.793Z,13.32
2017-05-25T04:06:20.218Z,13.38
2017-05-25T04:07:21.650Z,13.36
2017-05-25T04:08:23.075Z,13.38
2017-05-25T04:09:24.517Z,13.40
2017-05-25T04:10:25.946Z,13.46
2017-05-25T04:11:27.374Z,13.55
2017-05-25T04:12:28.800Z,13.49
2017-05-25T04:13:30.230Z,13.54
2017-05-25T04:14:31.656Z,13.55
2017-05-25T04:15:33.094Z,13.62
2017-05-25T04:16:34.531Z,13.71
2017-05-25T04:17:35.961Z,13.71
2017-05-25T04:18:37.404Z,13.61
2017-05-25T04:19:38.832Z,13.56
2017-05-25T04:20:40.264Z,13.70
2017-05-25T04:21:41.696Z,13.74
2017-05-25T04:22:43.122Z,13.80
2017-05-25T04:23:44.560Z,13.73
2017-05-25T04:24:45.993Z,13.76
2017-05-25T04:25:47.422Z,13.84
2017-05-25T04:26:48.888Z,13.83
2017-05-25T04:27:50.285Z,13.73
2017-05-25T04:28:51.715Z,13.80
2017-05-25T04:29:53.151Z,13.80
2017-05-25T04:30:54.578Z,13.89
2017-05-25T04:31:56.018Z,13.89
2017-05-25T04:32:57.452Z,13.98
2017-05-25T04:33:58.883Z,13.92
2017-05-25T04:35:00.312Z,13.76
2017-05-25T04:36:01.759Z,13.92
2017-05-25T04:37:03.192Z,14.02
2017-05-25T04:38:04.626Z,13.95
2017-05-25T04:39:06.177Z,13.98
2017-05-25T04:40:07.602Z,13.99
2017-05-25T04:41:09.031Z,13.96
2017-05-25T04:42:10.466Z,14.10
2017-05-25T04:43:11.896Z,13.99
2017-05-25T04:44:13.323Z,14.09
2017-05-25T04:45:14.756Z,13.87
2017-05-25T04:46:16.189Z,13.92
2017-05-25T04:47:17.639Z,13.79
2017-05-25T04:48:19.078Z,13.88
2017-05-25T04:49:20.504Z,13.87
2017-05-25T04:50:21.933Z,13.95
2017-05-25T04:51:23.363Z,13.83
2017-05-25T04:52:24.796Z,13.76
2017-05-25T04:53:26.236Z,13.74
2017-05-25T04:54:27.655Z,13.77
2017-05-25T04:55:29.084Z,13.87
2017-05-25T04:56:30.520Z,13.92
2017-05-25T04:57:31.943Z,13.79
2017-05-25T04:58:33.376Z,13.79
2017-05-25T04:59:34.803Z,13.87
2017-05-25T05:00:36.239Z,13.94
2017-05-25T05:01:37.670Z,13.91
2017-05-25T05:02:39.093Z,13.84
2017-05-25T05:03:40.527Z,13.98
2017-05-25T05:04:41.953Z,13.91
2017-05-25T05:05:43.389Z,13.91
2017-05-25T05:06:44.813Z,13.96
2017-05-25T05:07:46.242Z,14.06
2017-05-25T05:08:47.676Z,14.12
2017-05-25T05:09:49.105Z,13.95
2017-05-25T05:10:50.543Z,14.01
2017-05-25T05:11:51.962Z,14.04
2017-05-25T05:12:53.404Z,13.91
2017-05-25T05:13:54.836Z,13.87
2017-05-25T05:14:56.264Z,13.87
2017-05-25T05:15:57.696Z,13.81
2017-05-25T05:16:59.130Z,13.91
2017-05-25T05:18:00.563Z,13.92
2017-05-25T05:19:01.995Z,13.89
2017-05-25T05:20:04.072Z,13.94
2017-05-25T05:21:05.504Z,14.12
2017-05-25T05:22:06.931Z,13.95
2017-05-25T05:23:08.994Z,13.96
2017-05-25T05:24:10.427Z,13.84
2017-05-25T05:25:11.860Z,13.83
2017-05-25T05:26:13.298Z,13.84
2017-05-25T05:27:14.725Z,13.89
2017-05-25T05:28:16.151Z,13.95
2017-05-25T05:29:17.582Z,13.84
2017-05-25T05:30:19.016Z,13.98
2017-05-25T05:31:20.443Z,13.96
2017-05-25T05:32:21.871Z,13.94
2017-05-25T05:33:23.303Z,13.99
2017-05-25T05:34:24.734Z,13.95
2017-05-25T05:35:26.165Z,14.02
2017-05-25T05:36:27.595Z,14.14
2017-05-25T05:37:29.023Z,14.13
2017-05-25T05:38:30.451Z,13.95
2017-05-25T05:39:31.886Z,14.16
2017-05-25T05:40:33.314Z,14.19
2017-05-25T05:41:34.743Z,14.07
2017-05-25T05:42:36.188Z,13.96
2017-05-25T05:43:37.626Z,13.95
2017-05-25T05:44:39.055Z,14.04
2017-05-25T05:45:40.486Z,13.94
2017-05-25T05:46:41.913Z,14.02
2017-05-25T05:47:43.350Z,14.06
2017-05-25T05:48:44.777Z,14.14
2017-05-25T05:49:46.203Z,14.25
2017-05-25T05:50:47.637Z,14.19
2017-05-25T05:51:49.074Z,14.13
2017-05-25T05:52:50.517Z,14.02
2017-05-25T05:53:51.966Z,14.10
2017-05-25T05:54:53.392Z,14.07
2017-05-25T05:55:54.819Z,14.24
2017-05-25T05:56:56.256Z,14.12
2017-05-25T05:57:57.699Z,14.09
2017-05-25T05:58:59.134Z,14.14
2017-05-25T06:00:00.564Z,14.29
2017-05-25T06:01:01.988Z,14.21
2017-05-25T06:02:03.426Z,14.29
2017-05-25T06:03:04.866Z,14.16
2017-05-25T06:04:06.293Z,14.20
2017-05-25T06:05:07.722Z,14.27
2017-05-25T06:06:09.158Z,14.42
2017-05-25T06:07:10.590Z,14.43
2017-05-25T06:08:12.041Z,14.46
2017-05-25T06:09:13.463Z,14.57
2017-05-25T06:10:14.893Z,14.38
2017-05-25T06:11:16.324Z,14.47
2017-05-25T06:12:17.770Z,14.50
2017-05-25T06:13:19.193Z,14.47
2017-05-25T06:14:20.628Z,14.35
2017-05-25T06:15:22.056Z,14.44
2017-05-25T06:16:23.496Z,14.32
2017-05-25T06:17:24.921Z,14.37
2017-05-25T06:18:26.349Z,14.37
2017-05-25T06:19:27.775Z,14.52
2017-05-25T06:20:29.206Z,14.56
2017-05-25T06:21:30.634Z,14.53
2017-05-25T06:22:32.065Z,14.54
2017-05-25T06:23:33.495Z,14.60
2017-05-25T06:24:34.931Z,14.67
2017-05-25T06:25:36.361Z,14.74
2017-05-25T06:26:37.793Z,14.71
2017-05-25T06:27:39.222Z,14.93
2017-05-25T06:28:40.653Z,14.93
2017-05-25T06:29:42.089Z,15.02
2017-05-25T06:30:43.523Z,15.19
2017-05-25T06:31:44.953Z,15.08
2017-05-25T06:32:46.395Z,14.75
2017-05-25T06:33:47.832Z,14.74
2017-05-25T06:34:49.261Z,14.75
2017-05-25T06:35:50.692Z,14.72
2017-05-25T06:36:52.122Z,14.61
2017-05-25T06:37:53.557Z,14.65
2017-05-25T06:38:54.984Z,14.86
2017-05-25T06:39:56.419Z,14.75
2017-05-25T06:40:57.852Z,14.67
2017-05-25T06:41:59.287Z,14.53
2017-05-25T06:43:00.721Z,14.52
2017-05-25T06:44:02.157Z,14.62
2017-05-25T06:45:03.606Z,14.74
2017-05-25T06:46:05.021Z,14.78
2017-05-25T06:47:06.457Z,15.02
2017-05-25T06:48:07.895Z,14.81
2017-05-25T06:49:09.323Z,14.72
2017-05-25T06:50:10.756Z,14.67
2017-05-25T06:51:12.194Z,14.61
2017-05-25T06:52:13.675Z,14.64
2017-05-25T06:53:15.107Z,14.74
2017-05-25T06:54:16.539Z,14.61
2017-05-25T06:55:17.966Z,14.62
2017-05-25T06:56:19.405Z,14.60
2017-05-25T06:57:20.833Z,14.54
2017-05-25T06:58:22.266Z,14.57
2017-05-25T06:59:23.697Z,14.90
2017-05-25T07:00:25.132Z,14.90
2017-05-25T07:01:26.576Z,15.01
2017-05-25T07:02:28.005Z,14.99
2017-05-25T07:03:29.484Z,15.03
2017-05-25T07:04:30.865Z,15.02
2017-05-25T07:05:32.296Z,14.99
2017-05-25T07:06:33.725Z,14.87
2017-05-25T07:07:35.159Z,14.90
2017-05-25T07:08:36.588Z,15.06
2017-05-25T07:09:38.021Z,15.30
2017-05-25T07:10:39.455Z,15.20
2017-05-25T07:11:40.884Z,14.90
2017-05-25T07:12:42.321Z,14.91
2017-05-25T07:13:43.748Z,14.98
2017-05-25T07:14:45.193Z,15.05
2017-05-25T07:15:46.632Z,15.27
2017-05-25T07:16:48.058Z,15.13
2017-05-25T07:17:49.492Z,14.99
2017-05-25T07:18:50.918Z,15.01
2017-05-25T07:19:52.348Z,15.20
2017-05-25T07:20:53.779Z,15.01
2017-05-25T07:21:55.217Z,15.08
2017-05-25T07:22:56.658Z,14.91
2017-05-25T07:23:58.089Z,14.98
2017-05-25T07:24:59.523Z,15.21
2017-05-25T07:26:00.972Z,15.24
2017-05-25T07:27:02.404Z,15.54
2017-05-25T07:28:03.844Z,15.63
2017-05-25T07:29:05.276Z,15.63
2017-05-25T07:30:06.707Z,15.68
2017-05-25T07:31:08.138Z,15.61
2017-05-25T07:32:09.566Z,15.57
2017-05-25T07:33:10.998Z,15.61
2017-05-25T07:34:13.054Z,15.68
2017-05-25T07:35:14.566Z,15.89
2017-05-25T07:36:15.992Z,15.81
2017-05-25T07:37:17.427Z,15.61
2017-05-25T07:38:18.864Z,15.82
2017-05-25T07:39:20.780Z,15.99
2017-05-25T07:40:22.213Z,15.74
2017-05-25T07:41:23.643Z,15.68
2017-05-25T07:42:25.079Z,15.75
2017-05-25T07:43:26.521Z,15.56
2017-05-25T07:44:27.953Z,15.49
2017-05-25T07:45:29.384Z,15.60
2017-05-25T07:46:30.816Z,15.67
2017-05-25T07:47:32.247Z,15.93
2017-05-25T07:48:33.693Z,15.86
2017-05-25T07:49:35.123Z,15.94
2017-05-25T07:50:36.554Z,15.56
2017-05-25T07:51:38.005Z,15.64
2017-05-25T07:52:39.435Z,15.82
2017-05-25T07:53:40.870Z,16.01
2017-05-25T07:54:42.306Z,16.35
2017-05-25T07:55:43.733Z,16.22
2017-05-25T07:56:45.177Z,15.97
2017-05-25T07:57:46.616Z,15.66
2017-05-25T07:58:48.055Z,15.60
2017-05-25T07:59:49.484Z,15.82
2017-05-25T08:00:50.923Z,15.68
2017-05-25T08:01:52.350Z,15.66
2017-05-25T08:02:53.786Z,15.49
2017-05-25T08:03:55.224Z,15.56
2017-05-25T08:04:56.653Z,15.49
2017-05-25T08:05:58.085Z,15.30
2017-05-25T08:06:59.543Z,15.13
2017-05-25T08:08:01.811Z,15.38
2017-05-25T08:09:03.241Z,15.20
2017-05-25T08:10:04.706Z,15.05
2017-05-25T08:11:06.148Z,15.05
2017-05-25T08:12:07.583Z,15.48
2017-05-25T08:13:09.026Z,15.64
2017-05-25T08:14:10.467Z,15.54
2017-05-25T08:15:11.909Z,15.39
2017-05-25T08:16:13.336Z,15.48
2017-05-25T08:17:14.776Z,15.67
2017-05-25T08:18:16.213Z,15.85
2017-05-25T08:19:17.645Z,16.04
2017-05-25T08:20:19.088Z,16.00
2017-05-25T08:21:20.526Z,15.97
2017-05-25T08:22:21.964Z,15.96
2017-05-25T08:23:23.400Z,16.00
2017-05-25T08:24:24.848Z,16.00
2017-05-25T08:25:27.012Z,15.99
2017-05-25T08:26:28.445Z,15.97
2017-05-25T08:27:29.881Z,16.09
2017-05-25T08:28:31.314Z,16.09
2017-05-25T08:29:32.755Z,15.93
2017-05-25T08:30:34.182Z,15.99
2017-05-25T08:31:35.623Z,15.97
2017-05-25T08:32:37.051Z,15.99
2017-05-25T08:33:39.121Z,15.96
2017-05-25T08:34:40.558Z,15.97
2017-05-25T08:35:41.992Z,15.78
2017-05-25T08:36:43.425Z,15.85
2017-05-25T08:37:44.861Z,16.23
2017-05-25T08:38:46.299Z,16.22
2017-05-25T08:39:47.725Z,16.18
2017-05-25T08:40:49.168Z,15.96
2017-05-25T08:41:50.603Z,15.97
2017-05-25T08:42:52.036Z,16.23
2017-05-25T08:43:53.472Z,16.12
2017-05-25T08:44:54.899Z,16.12
2017-05-25T08:45:56.332Z,16.23
2017-05-25T08:46:57.769Z,16.44
2017-05-25T08:47:59.202Z,16.42
2017-05-25T08:49:00.638Z,16.38
2017-05-25T08:50:02.066Z,16.09
2017-05-25T08:51:03.501Z,16.12
2017-05-25T08:52:04.936Z,16.34
2017-05-25T08:53:06.362Z,16.25
2017-05-25T08:54:07.797Z,16.04
2017-05-25T08:55:09.227Z,16.15
2017-05-25T08:56:10.660Z,16.33
2017-05-25T08:57:12.098Z,16.34
2017-05-25T08:58:13.523Z,16.23
2017-05-25T08:59:14.961Z,16.42
2017-05-25T09:00:16.393Z,16.52
2017-05-25T09:01:17.828Z,16.63
2017-05-25T09:02:19.263Z,16.73
2017-05-25T09:03:20.698Z,16.83
2017-05-25T09:04:22.137Z,16.89
2017-05-25T09:05:23.575Z,16.59
2017-05-25T09:06:25.007Z,16.59
2017-05-25T09:07:26.472Z,16.81
2017-05-25T09:08:27.935Z,16.85
2017-05-25T09:09:29.372Z,16.81
2017-05-25T09:10:30.795Z,16.95
2017-05-25T09:11:32.242Z,16.81
2017-05-25T09:12:33.677Z,16.89
2017-05-25T09:13:35.686Z,16.99
2017-05-25T09:14:37.123Z,17.23
2017-05-25T09:15:38.555Z,17.38
2017-05-25T09:16:39.996Z,17.22
2017-05-25T09:17:41.420Z,17.44
2017-05-25T09:18:42.855Z,17.29
2017-05-25T09:19:44.286Z,17.51
2017-05-25T09:20:45.723Z,17.71
2017-05-25T09:21:47.166Z,17.71
2017-05-25T09:22:48.598Z,17.76
2017-05-25T09:23:50.030Z,17.32
2017-05-25T09:24:51.465Z,17.30
2017-05-25T09:25:52.905Z,17.50
2017-05-25T09:26:54.342Z,17.64
2017-05-25T09:27:55.774Z,17.67
2017-05-25T09:28:57.206Z,17.74
2017-05-25T09:29:58.644Z,17.67
2017-05-25T09:31:00.082Z,17.53
2017-05-25T09:32:01.513Z,17.67
2017-05-25T09:33:03.022Z,17.47
2017-05-25T09:34:04.652Z,17.71
2017-05-25T09:35:06.190Z,17.54
2017-05-25T09:36:07.798Z,17.73
2017-05-25T09:37:09.505Z,17.69
2017-05-25T09:38:11.190Z,17.66
2017-05-25T09:39:12.894Z,17.73
2017-05-25T09:40:14.519Z,17.70
2017-05-25T09:41:16.119Z,17.54
2017-05-25T09:42:17.825Z,17.69
2017-05-25T09:43:19.651Z,17.67
2017-05-25T09:44:21.247Z,17.76
2017-05-25T09:45:22.991Z,17.50
2017-05-25T09:46:24.815Z,17.46
2017-05-25T09:47:26.314Z,17.70
2017-05-25T09:48:27.941Z,17.78
2017-05-25T09:49:29.628Z,17.54
2017-05-25T09:50:31.241Z,17.76
2017-05-25T09:51:32.801Z,17.73
2017-05-25T09:52:34.409Z,17.97
2017-05-25T09:53:36.006Z,18.17
2017-05-25T09:54:37.615Z,18.28
2017-05-25T09:55:39.114Z,18.34
2017-05-25T09:56:40.858Z,18.49
2017-05-25T09:57:42.625Z,18.29
2017-05-25T09:58:44.273Z,18.00
2017-05-25T09:59:45.837Z,17.85
2017-05-25T10:00:47.605Z,17.89
2017-05-25T10:01:49.255Z,18.21
2017-05-25T10:02:50.878Z,18.04
2017-05-25T10:03:52.416Z,17.71
2017-05-25T10:04:53.927Z,18.10
2017-05-25T10:05:55.705Z,18.03
2017-05-25T10:06:57.268Z,17.94
2017-05-25T10:07:58.852Z,18.33
2017-05-25T10:09:00.418Z,18.50
2017-05-25T10:10:01.937Z,18.31
2017-05-25T10:11:03.488Z,18.06
2017-05-25T10:12:05.095Z,18.10
2017-05-25T10:13:06.755Z,18.39
2017-05-25T10:14:08.068Z,18.40
2017-05-25T10:15:09.636Z,18.65
2017-05-25T10:16:11.345Z,18.92
2017-05-25T10:17:13.000Z,18.65
2017-05-25T10:18:14.541Z,18.55
2017-05-25T10:19:15.998Z,18.67
2017-05-25T10:20:17.559Z,18.57
2017-05-25T10:21:19.243Z,18.36
2017-05-25T10:22:20.726Z,18.47
2017-05-25T10:23:22.355Z,18.84
2017-05-25T10:24:23.859Z,18.65
2017-05-25T10:25:25.449Z,18.80
2017-05-25T10:26:26.975Z,18.52
2017-05-25T10:27:28.682Z,18.50
2017-05-25T10:28:30.232Z,18.37
2017-05-25T10:29:31.799Z,18.42
2017-05-25T10:30:33.337Z,18.90
2017-05-25T10:31:34.927Z,19.14
2017-05-25T10:32:36.516Z,19.21
2017-05-25T10:33:38.160Z,19.28
2017-05-25T10:34:39.785Z,19.17
2017-05-25T10:35:41.402Z,19.21
2017-05-25T10:36:43.008Z,19.17
2017-05-25T10:37:44.624Z,19.25
2017-05-25T10:38:46.237Z,19.13
2017-05-25T10:39:47.787Z,19.14
2017-05-25T10:40:49.200Z,19.10
2017-05-25T10:41:50.638Z,19.40
2017-05-25T10:42:52.076Z,19.40
2017-05-25T10:43:53.512Z,19.50
2017-05-25T10:44:54.947Z,19.38
2017-05-25T10:45:56.380Z,19.24
2017-05-25T10:46:57.814Z,18.91
2017-05-25T10:47:59.249Z,19.10
2017-05-25T10:49:00.687Z,19.42
2017-05-25T10:50:02.940Z,19.58
2017-05-25T10:51:04.374Z,19.60
2017-05-25T10:52:05.810Z,19.90
2017-05-25T10:53:07.238Z,19.73
2017-05-25T10:54:08.677Z,19.68
2017-05-25T10:55:10.118Z,19.94
2017-05-25T10:56:11.738Z,19.83
2017-05-25T10:57:13.367Z,20.09
2017-05-25T10:58:14.904Z,19.97
2017-05-25T10:59:16.504Z,19.93
2017-05-25T11:00:17.949Z,19.88
2017-05-25T11:01:19.386Z,19.93
2017-05-25T11:02:20.837Z,20.16
2017-05-25T11:03:22.278Z,20.47
2017-05-25T11:04:23.735Z,20.28
2017-05-25T11:05:25.211Z,20.24
2017-05-25T11:06:26.642Z,20.02
2017-05-25T11:07:28.075Z,20.41
2017-05-25T11:08:29.514Z,20.23
2017-05-25T11:09:30.971Z,20.68
2017-05-25T11:10:32.413Z,20.49
2017-05-25T11:11:33.865Z,20.27
2017-05-25T11:12:35.298Z,20.02
2017-05-25T11:13:36.735Z,20.43
2017-05-25T11:14:38.211Z,20.39
2017-05-25T11:15:39.662Z,20.46
2017-05-25T11:16:41.103Z,20.58
2017-05-25T11:17:42.541Z,20.64
2017-05-25T11:18:43.987Z,20.80
2017-05-25T11:19:45.419Z,20.49
2017-05-25T11:20:47.058Z,20.46
2017-05-25T11:21:48.497Z,20.54
2017-05-25T11:22:49.941Z,20.72
2017-05-25T11:23:51.378Z,20.79
2017-05-25T11:24:52.813Z,20.84
2017-05-25T11:25:54.250Z,21.13
2017-05-25T11:26:55.688Z,21.02
2017-05-25T11:27:57.129Z,20.77
2017-05-25T11:28:58.569Z,20.61
2017-05-25T11:30:00.001Z,20.83
2017-05-25T11:31:01.442Z,20.83
2017-05-25T11:32:02.881Z,20.66
2017-05-25T11:33:04.314Z,20.76
2017-05-25T11:34:05.760Z,20.95
2017-05-25T11:35:07.207Z,20.95
2017-05-25T11:36:08.641Z,21.19
2017-05-25T11:37:10.083Z,20.99
2017-05-25T11:38:11.526Z,21.13
2017-05-25T11:39:12.960Z,21.09
2017-05-25T11:40:14.405Z,20.98
2017-05-25T11:41:15.852Z,21.14
2017-05-25T11:42:17.281Z,21.24
2017-05-25T11:43:18.725Z,21.02
2017-05-25T11:44:20.171Z,21.35
2017-05-25T11:45:21.615Z,21.50
2017-05-25T11:46:23.054Z,21.56
2017-05-25T11:47:24.496Z,21.66
2017-05-25T11:48:25.931Z,21.85
2017-05-25T11:49:27.391Z,21.78
2017-05-25T11:50:28.840Z,21.94
2017-05-25T11:51:30.273Z,21.56
2017-05-25T11:52:31.711Z,21.44
2017-05-25T11:53:33.156Z,21.87
2017-05-25T11:54:34.594Z,21.95
2017-05-25T11:55:36.039Z,21.67
2017-05-25T11:56:37.474Z,21.75
2017-05-25T11:57:38.929Z,21.57
2017-05-25T11:58:40.367Z,21.69
2017-05-25T11:59:41.806Z,22.23
2017-05-25T12:00:43.247Z,21.90
2017-05-25T12:01:44.695Z,21.98
2017-05-25T12:02:46.173Z,21.81
2017-05-25T12:03:47.618Z,22.01
2017-05-25T12:04:49.052Z,22.10
2017-05-25T12:05:50.499Z,22.27
2017-05-25T12:06:51.979Z,22.22
2017-05-25T12:07:53.420Z,22.07
2017-05-25T12:08:54.862Z,22.14
2017-05-25T12:09:56.309Z,22.35
2017-05-25T12:10:57.748Z,22.34
2017-05-25T12:11:59.184Z,22.47
2017-05-25T12:13:00.623Z,22.62
2017-05-25T12:14:02.058Z,22.59
2017-05-25T12:15:03.492Z,22.72
2017-05-25T12:16:04.937Z,22.97
2017-05-25T12:17:06.408Z,22.60
2017-05-25T12:18:07.845Z,22.47
2017-05-25T12:19:09.282Z,22.46
2017-05-25T12:20:10.717Z,22.39
2017-05-25T12:21:12.155Z,21.94
2017-05-25T12:22:13.602Z,22.20
2017-05-25T12:23:15.042Z,22.27
2017-05-25T12:24:16.500Z,22.54
2017-05-25T12:25:17.946Z,22.62
2017-05-25T12:26:19.389Z,22.53
2017-05-25T12:27:20.827Z,22.28
2017-05-25T12:28:22.265Z,22.37
2017-05-25T12:29:23.718Z,22.25
2017-05-25T12:30:25.163Z,22.22
2017-05-25T12:31:26.601Z,22.06
2017-05-25T12:32:28.044Z,22.25
2017-05-25T12:33:29.481Z,22.46
2017-05-25T12:34:30.922Z,22.74
2017-05-25T12:35:32.363Z,22.56
2017-05-25T12:36:33.813Z,22.75
2017-05-25T12:37:35.259Z,22.86
2017-05-25T12:38:36.700Z,22.80
2017-05-25T12:39:38.148Z,22.52
2017-05-25T12:40:39.621Z,22.43
2017-05-25T12:41:41.065Z,22.62
2017-05-25T12:42:42.503Z,22.57
2017-05-25T12:43:43.949Z,22.64
2017-05-25T12:44:45.397Z,22.43
2017-05-25T12:45:46.841Z,22.28
2017-05-25T12:46:48.273Z,22.29
2017-05-25T12:47:49.712Z,22.25
2017-05-25T12:48:51.158Z,22.62
2017-05-25T12:49:52.593Z,22.78
2017-05-25T12:50:54.031Z,22.87
2017-05-25T12:51:55.473Z,22.62
2017-05-25T12:52:56.917Z,22.59
2017-05-25T12:53:58.353Z,22.67
2017-05-25T12:54:59.801Z,22.84
2017-05-25T12:56:01.240Z,22.82
2017-05-25T12:57:02.692Z,22.71
2017-05-25T12:58:04.160Z,22.92
2017-05-25T12:59:05.611Z,23.61
2017-05-25T13:00:07.168Z,23.94
2017-05-25T13:01:08.618Z,23.79
2017-05-25T13:02:10.111Z,23.31
2017-05-25T13:03:11.546Z,23.26
2017-05-25T13:04:12.980Z,23.58
2017-05-25T13:05:14.423Z,23.72
2017-05-25T13:06:15.873Z,23.57
2017-05-25T13:07:17.312Z,23.45
2017-05-25T13:08:18.802Z,23.77
2017-05-25T13:09:20.198Z,23.26
2017-05-25T13:10:22.214Z,23.27
2017-05-25T13:11:23.655Z,23.22